createdAt,value
2017-09-18T08:21:35.451Z,13.20
2017-09-18T08:24:01.611Z,8.37
2017-09-18T08:26:28.507Z,8.60
2017-09-18T08:28:54.662Z,8.23
2017-09-18T08:31:21.583Z,8.93
2017-09-18T08:33:48.513Z,8.67
2017-09-18T08:36:15.391Z,8.60
2017-09-18T08:38:41.583Z,10.20
2017-09-18T08:41:07.772Z,8.80
2017-09-18T08:43:34.003Z,8.53
2017-09-18T08:46:00.152Z,7.90
2017-09-18T08:48:26.343Z,9.40
2017-09-18T08:50:52.727Z,9.20
2017-09-18T08:53:19.691Z,8.00
2017-09-18T08:55:45.853Z,10.63
2017-09-18T08:58:12.100Z,7.60
2017-09-18T09:00:38.293Z,8.70
2017-09-18T09:03:04.515Z,9.47
2017-09-18T09:05:31.432Z,10.37
2017-09-18T09:07:57.647Z,7.10
2017-09-18T09:10:23.847Z,8.63
2017-09-18T09:12:50.087Z,8.90
2017-09-18T09:15:16.247Z,10.20
2017-09-18T09:17:42.410Z,7.60
2017-09-18T09:20:08.581Z,6.30
2017-09-18T09:22:34.759Z,7.33
2017-09-18T09:25:01.681Z,9.80
2017-09-18T09:27:27.870Z,7.93
2017-09-18T09:29:54.035Z,5.50
2017-09-18T09:32:20.203Z,6.67
2017-09-18T09:34:46.352Z,5.77
2017-09-18T09:37:12.523Z,7.13
2017-09-18T09:39:38.687Z,6.63
2017-09-18T09:42:04.876Z,7.50
2017-09-18T09:44:31.784Z,8.80
2017-09-18T09:46:57.976Z,4.77
2017-09-18T09:49:24.147Z,6.77
2017-09-18T09:51:51.161Z,7.43
2017-09-18T09:54:18.406Z,9.40
2017-09-18T09:56:45.523Z,9.23
2017-09-18T09:59:11.789Z,9.50
2017-09-18T10:01:38.156Z,7.90
2017-09-18T10:04:04.362Z,7.70
2017-09-18T10:06:30.590Z,11.03
2017-09-18T10:08:57.045Z,8.27
2017-09-18T10:11:23.369Z,13.13
2017-09-18T10:13:49.773Z,11.53
2017-09-18T10:16:16.756Z,13.60
2017-09-18T10:18:43.028Z,13.63
2017-09-18T10:21:09.312Z,18.00
2017-09-18T10:23:35.494Z,13.33
2017-09-18T10:26:01.676Z,14.67
2017-09-18T10:28:27.839Z,20.63
2017-09-18T10:30:54.740Z,15.87
2017-09-18T10:33:20.931Z,15.70
2017-09-18T10:35:47.095Z,15.57
2017-09-18T10:38:13.314Z,14.10
2017-09-18T10:40:40.247Z,16.60
2017-09-18T10:43:06.395Z,17.10
2017-09-18T10:45:33.299Z,14.73
2017-09-18T10:47:59.440Z,17.07
2017-09-18T10:50:25.610Z,14.40
2017-09-18T10:52:51.776Z,13.77
2017-09-18T10:55:17.967Z,13.33
2017-09-18T10:57:44.851Z,14.17
2017-09-18T11:00:11.011Z,15.90
2017-09-18T11:02:37.908Z,16.90
2017-09-18T11:05:05.477Z,16.90
2017-09-18T11:07:31.630Z,12.90
2017-09-18T11:09:57.795Z,9.60
2017-09-18T11:12:23.951Z,7.40
2017-09-18T11:14:50.811Z,8.17
2017-09-18T11:17:17.704Z,10.10
2017-09-18T11:19:43.881Z,8.50
2017-09-18T11:22:10.043Z,7.60
2017-09-18T11:24:36.215Z,8.53
2017-09-18T11:29:35.311Z,7.70
2017-09-18T11:32:02.200Z,9.13
2017-09-18T11:34:28.371Z,8.53
2017-09-18T11:36:59.100Z,8.30
2017-09-18T11:39:25.281Z,8.63
2017-09-18T11:41:52.960Z,12.20
2017-09-18T11:44:19.142Z,11.00
2017-09-18T11:46:45.283Z,11.77
2017-09-18T11:49:11.455Z,12.03
2017-09-18T11:51:37.618Z,11.73
2017-09-18T11:54:03.755Z,10.60
2017-09-18T11:56:29.943Z,10.63
2017-09-18T11:58:56.099Z,12.63
2017-09-18T12:01:23.013Z,10.30
2017-09-18T12:03:50.259Z,11.83
2017-09-18T12:06:16.423Z,10.67
2017-09-18T12:08:43.302Z,8.77
2017-09-18T12:11:09.475Z,7.23
2017-09-18T12:13:35.631Z,9.47
2017-09-18T12:16:01.841Z,6.27
2017-09-18T12:18:28.727Z,5.70
2017-09-18T12:20:54.885Z,9.17
2017-09-18T12:23:21.046Z,8.20
2017-09-18T12:25:47.929Z,7.07
2017-09-18T12:28:14.108Z,8.47
2017-09-18T12:30:40.269Z,6.87
2017-09-18T12:33:06.474Z,8.23
2017-09-18T12:35:39.648Z,8.03
2017-09-18T12:38:05.811Z,6.90
2017-09-18T12:40:32.695Z,5.77
2017-09-18T12:42:58.863Z,6.93
2017-09-18T12:45:24.994Z,7.50
2017-09-18T12:47:51.163Z,7.30
2017-09-18T12:50:18.075Z,6.87
2017-09-18T12:52:44.270Z,7.93
2017-09-18T12:55:10.415Z,6.50
2017-09-18T12:57:36.579Z,6.80
2017-09-18T13:00:02.735Z,7.00
2017-09-18T13:02:28.891Z,5.67
2017-09-18T13:04:55.775Z,4.63
2017-09-18T13:07:21.947Z,7.70
2017-09-18T13:09:48.118Z,6.40
2017-09-18T13:12:14.296Z,7.10
2017-09-18T13:14:40.431Z,10.43
2017-09-18T13:17:06.593Z,6.83
2017-09-18T13:19:32.731Z,7.67
2017-09-18T13:21:58.894Z,9.13
2017-09-18T13:24:25.767Z,7.77
2017-09-18T13:26:51.940Z,8.87
2017-09-18T13:29:18.823Z,7.83
2017-09-18T13:31:45.006Z,8.27
2017-09-18T13:34:11.194Z,8.40
2017-09-18T13:36:38.112Z,9.00
2017-09-18T13:39:04.291Z,11.77
2017-09-18T13:41:30.479Z,6.73
2017-09-18T13:43:56.695Z,6.40
2017-09-18T13:46:22.860Z,6.63
2017-09-18T13:48:49.165Z,7.47
2017-09-18T13:51:15.346Z,5.53
2017-09-18T13:53:41.543Z,7.50
2017-09-18T13:56:07.691Z,7.63
2017-09-18T13:58:33.871Z,8.43
2017-09-18T14:01:00.046Z,9.33
2017-09-18T14:03:26.225Z,7.60
2017-09-18T14:05:52.395Z,7.20
2017-09-18T14:08:19.296Z,7.83
2017-09-18T14:10:45.439Z,8.83
2017-09-18T14:13:12.338Z,8.33
2017-09-18T14:15:38.799Z,8.77
2017-09-18T14:18:05.706Z,9.60
2017-09-18T14:20:31.850Z,9.47
2017-09-18T14:22:58.030Z,10.27
2017-09-18T14:25:24.175Z,9.17
2017-09-18T14:27:50.319Z,10.10
2017-09-18T14:30:16.492Z,9.13
2017-09-18T14:32:43.436Z,9.97
2017-09-18T14:35:09.603Z,11.40
2017-09-18T14:37:35.807Z,10.90
2017-09-18T14:40:02.019Z,12.03
2017-09-18T14:42:28.167Z,14.20
2017-09-18T14:44:55.084Z,10.93
2017-09-18T14:47:21.251Z,9.77
2017-09-18T14:49:47.415Z,10.93
2017-09-18T14:52:13.615Z,10.60
2017-09-18T14:54:39.783Z,11.90
2017-09-18T14:57:05.960Z,10.40
2017-09-18T14:59:32.136Z,9.10
2017-09-18T15:01:58.299Z,15.60
2017-09-18T15:04:24.663Z,12.07
2017-09-18T15:06:50.830Z,14.10
2017-09-18T15:09:17.760Z,18.10
2017-09-18T15:11:44.663Z,18.03
2017-09-18T15:14:10.857Z,22.75
2017-09-18T15:16:37.031Z,16.07
2017-09-18T15:19:03.172Z,9.23
2017-09-18T15:21:29.368Z,12.80
2017-09-18T15:23:55.527Z,7.43
2017-09-18T15:26:21.737Z,8.07
2017-09-18T15:28:47.900Z,11.70
2017-09-18T15:31:14.084Z,10.93
2017-09-18T15:33:40.258Z,9.93
2017-09-18T15:36:06.465Z,14.77
2017-09-18T15:38:32.692Z,15.10
2017-09-18T15:40:58.879Z,22.63
2017-09-18T15:43:25.107Z,14.40
2017-09-18T15:45:51.507Z,18.67
2017-09-18T15:48:17.690Z,21.63
2017-09-18T15:50:44.651Z,25.70
2017-09-18T15:53:10.816Z,18.63
2017-09-18T15:55:37.023Z,14.53
2017-09-18T15:58:03.185Z,16.63
2017-09-18T16:00:29.377Z,15.10
2017-09-18T16:02:55.541Z,16.83
2017-09-18T16:05:21.760Z,18.60
2017-09-18T16:07:47.940Z,18.70
2017-09-18T16:10:14.103Z,28.17
2017-09-18T16:12:40.315Z,31.70
2017-09-18T16:15:06.482Z,30.33
2017-09-18T16:17:32.704Z,35.77
2017-09-18T16:19:58.940Z,26.10
2017-09-18T16:22:25.146Z,23.83
2017-09-18T16:24:51.315Z,24.53
2017-09-18T16:27:18.255Z,12.13
2017-09-18T16:29:45.195Z,18.33
2017-09-18T16:32:11.400Z,10.20
2017-09-18T16:34:38.334Z,9.47
2017-09-18T16:37:04.516Z,6.00
2017-09-18T16:39:30.711Z,4.03
2017-09-18T16:41:57.650Z,5.30
2017-09-18T16:44:23.815Z,6.13
2017-09-18T16:46:50.009Z,8.87
2017-09-18T16:49:16.935Z,8.23
2017-09-18T16:51:43.121Z,7.60
2017-09-18T16:54:09.298Z,6.23
2017-09-18T16:56:35.496Z,7.00
2017-09-18T16:59:02.436Z,13.47
2017-09-18T17:01:28.590Z,11.53
2017-09-18T17:03:54.771Z,7.37
2017-09-18T17:06:20.936Z,13.27
2017-09-18T17:08:47.124Z,10.23
2017-09-18T17:11:13.300Z,7.50
2017-09-18T17:13:39.516Z,10.40
2017-09-18T17:16:05.783Z,8.57
2017-09-18T17:18:31.954Z,10.60
2017-09-18T17:20:58.103Z,13.20
2017-09-18T17:23:25.040Z,12.93
2017-09-18T17:25:51.403Z,14.53
2017-09-18T17:28:18.331Z,9.33
2017-09-18T17:30:44.511Z,9.40
2017-09-18T17:33:11.643Z,8.03
2017-09-18T17:35:37.819Z,8.13
2017-09-18T17:38:04.159Z,6.37
2017-09-18T17:40:30.325Z,7.80
2017-09-18T17:42:57.241Z,8.77
2017-09-18T17:45:24.164Z,9.67
2017-09-18T17:47:50.336Z,11.10
2017-09-18T17:50:16.516Z,8.80
2017-09-18T17:52:42.696Z,8.87
2017-09-18T17:55:08.872Z,13.33
2017-09-18T17:57:35.027Z,9.57
2017-09-18T18:00:01.229Z,10.27
2017-09-18T18:02:27.383Z,12.63
2017-09-18T18:04:54.308Z,9.40
2017-09-18T18:07:21.433Z,9.30
2017-09-18T18:09:48.051Z,8.77
2017-09-18T18:12:14.207Z,10.87
2017-09-18T18:14:40.379Z,11.30
2017-09-18T18:17:06.542Z,15.33
2017-09-18T18:19:32.719Z,13.30
2017-09-18T18:21:59.610Z,17.80
2017-09-18T18:24:25.787Z,14.63
2017-09-18T18:26:51.940Z,12.47
2017-09-18T18:29:18.147Z,11.10
2017-09-18T18:31:44.432Z,10.97
2017-09-18T18:34:10.711Z,11.30
2017-09-18T18:36:36.903Z,8.03
2017-09-18T18:39:03.123Z,10.87
2017-09-18T18:41:29.310Z,9.07
2017-09-18T18:43:55.491Z,8.73
2017-09-18T18:46:22.436Z,8.83
2017-09-18T18:48:48.627Z,8.90
2017-09-18T18:51:15.556Z,8.40
2017-09-18T18:53:42.459Z,8.67
2017-09-18T18:56:08.795Z,7.90
2017-09-18T18:58:35.026Z,8.67
2017-09-18T19:01:01.208Z,7.53
2017-09-18T19:03:27.483Z,7.00
2017-09-18T19:05:53.655Z,8.43
2017-09-18T19:08:19.911Z,10.43
2017-09-18T19:10:46.094Z,8.13
2017-09-18T19:13:12.985Z,7.33
2017-09-18T19:15:39.227Z,18.30
2017-09-18T19:18:05.395Z,9.63
2017-09-18T19:20:31.567Z,8.13
2017-09-18T19:22:58.483Z,7.43
2017-09-18T19:25:24.663Z,7.30
2017-09-18T19:27:50.835Z,7.60
2017-09-18T19:30:17.779Z,18.50
2017-09-18T19:32:43.935Z,11.90
2017-09-18T19:35:15.190Z,10.77
2017-09-18T19:37:42.091Z,10.43
2017-09-18T19:40:11.419Z,8.70
2017-09-18T19:42:38.303Z,8.47
2017-09-18T19:45:04.497Z,11.57
2017-09-18T19:47:30.643Z,11.07
2017-09-18T19:49:56.849Z,12.90
2017-09-18T19:52:23.026Z,16.67
2017-09-18T19:54:49.580Z,19.23
2017-09-18T19:57:15.790Z,15.83
2017-09-18T19:59:42.007Z,15.67
2017-09-18T20:02:08.172Z,11.73
2017-09-18T20:04:35.100Z,11.03
2017-09-18T20:07:02.035Z,8.47
2017-09-18T20:09:28.968Z,9.57
2017-09-18T20:11:56.259Z,10.67
2017-09-18T20:14:22.470Z,12.37
2017-09-18T20:16:48.661Z,13.07
2017-09-18T20:19:14.827Z,13.63
2017-09-18T20:21:40.980Z,15.53
2017-09-18T20:24:07.176Z,11.17
2017-09-18T20:26:34.069Z,12.23
2017-09-18T20:29:00.643Z,10.50
2017-09-18T20:31:26.791Z,10.00
2017-09-18T20:33:52.985Z,9.53
2017-09-18T20:36:19.171Z,9.70
2017-09-18T20:38:46.144Z,10.67
2017-09-18T20:41:12.339Z,10.97
2017-09-18T20:43:38.615Z,11.17
2017-09-18T20:46:04.783Z,11.30
2017-09-18T20:48:30.952Z,12.90
2017-09-18T20:50:57.902Z,10.73
2017-09-18T20:53:24.071Z,11.33
2017-09-18T20:55:50.243Z,11.60
2017-09-18T20:58:16.387Z,10.00
2017-09-18T21:00:42.555Z,11.73
2017-09-18T21:03:08.736Z,9.87
2017-09-18T21:05:35.683Z,10.47
2017-09-18T21:08:02.599Z,10.33
2017-09-18T21:10:28.766Z,12.40
2017-09-18T21:12:54.942Z,11.80
2017-09-18T21:15:21.971Z,11.80
2017-09-18T21:17:48.867Z,8.50
2017-09-18T21:20:15.042Z,8.30
2017-09-18T21:22:41.199Z,9.07
2017-09-18T21:25:07.427Z,11.57
2017-09-18T21:27:33.578Z,7.77
2017-09-18T21:30:00.043Z,10.30
2017-09-18T21:32:26.197Z,8.87
2017-09-18T21:34:52.383Z,8.40
2017-09-18T21:37:18.543Z,7.30
2017-09-18T21:39:44.699Z,6.33
2017-09-18T21:42:10.874Z,5.53
2017-09-18T21:44:37.051Z,7.30
2017-09-18T21:47:03.963Z,9.70
2017-09-18T21:49:30.115Z,8.63
2017-09-18T21:51:56.306Z,12.50
2017-09-18T21:54:22.495Z,10.27
2017-09-18T21:56:49.403Z,11.20
2017-09-18T21:59:15.559Z,20.00
2017-09-18T22:01:41.740Z,11.47
2017-09-18T22:04:07.899Z,11.97
2017-09-18T22:06:34.839Z,9.43
2017-09-18T22:09:01.752Z,10.10
2017-09-18T22:11:27.918Z,10.07
2017-09-18T22:13:54.064Z,10.40
2017-09-18T22:16:20.242Z,9.80
2017-09-18T22:18:46.410Z,10.77
2017-09-18T22:21:13.331Z,11.87
2017-09-18T22:23:39.495Z,12.63
2017-09-18T22:26:05.663Z,13.57
2017-09-18T22:28:39.736Z,15.60
2017-09-18T22:31:06.729Z,12.27
2017-09-18T22:33:32.875Z,14.63
2017-09-18T22:35:59.053Z,17.90
2017-09-18T22:38:25.252Z,16.97
2017-09-18T22:40:51.407Z,19.77
2017-09-18T22:43:17.562Z,15.53
2017-09-18T22:45:44.471Z,16.70
2017-09-18T22:48:10.617Z,14.50
2017-09-18T22:50:37.531Z,11.57
2017-09-18T22:53:03.695Z,15.30
2017-09-18T22:55:29.869Z,14.00
2017-09-18T22:57:56.771Z,11.70
2017-09-18T23:00:22.951Z,13.40
2017-09-18T23:02:49.139Z,14.30
2017-09-18T23:05:15.319Z,13.13
2017-09-18T23:07:41.486Z,10.57
2017-09-18T23:10:07.659Z,12.40
2017-09-18T23:12:33.842Z,14.90
2017-09-18T23:15:00.010Z,14.70
2017-09-18T23:17:26.208Z,16.03
2017-09-18T23:19:53.124Z,27.10
2017-09-18T23:22:19.285Z,19.50
2017-09-18T23:24:45.452Z,17.97
2017-09-18T23:27:11.604Z,13.17
2017-09-18T23:29:37.767Z,13.53
2017-09-18T23:32:03.915Z,11.57
2017-09-18T23:34:30.095Z,12.20
2017-09-18T23:36:56.258Z,18.23
2017-09-18T23:39:22.447Z,12.97
2017-09-18T23:41:49.339Z,13.83
2017-09-18T23:44:15.484Z,12.27
2017-09-18T23:46:42.418Z,12.73
2017-09-18T23:49:09.318Z,13.27
2017-09-18T23:51:35.523Z,13.30
2017-09-18T23:54:01.675Z,13.43
2017-09-18T23:56:28.583Z,15.53
2017-09-18T23:58:54.746Z,15.10
